Time;durP1;ratioP1;P1;durP2;ratioP2;P2;SDS_P1;SDS_P2;PMS_P1;PMS_P2;Temp;Humidity;BMP_temperature;BMP_pressure;BME280_temperature;BME280_humidity;BME280_pressure;Samples;Min_cycle;Max_cycle;Signal;HPM_P1;HPM_P2
2022/12/22 03:27:28;;;;;;;;;;;;;;;14.48;62.95;99140.97;4794465;29;6793;-72
2022/12/22 03:29:53;;;;;;;;;;;;;;;14.50;63.22;99141.88;4784904;29;6982;-72
2022/12/22 03:32:19;;;;;;;;;;;;;;;14.51;62.85;99134.97;4799784;29;6955;-72
2022/12/22 03:34:44;;;;;;;;;;;;;;;14.53;63.26;99134.16;4801138;29;6849;-72
2022/12/22 03:37:10;;;;;;;;;;;;;;;14.53;64.04;99129.00;4799840;29;6773;-72
2022/12/22 03:39:36;;;;;;;;;;;;;;;14.55;63.27;99126.44;4788690;29;6837;-72
2022/12/22 03:47:31;;;;;;;;;;;;;;;14.58;63.39;99122.19;4792954;29;6837;-72
2022/12/22 03:49:56;;;;;;;;;;;;;;;14.60;63.18;99118.78;4785585;29;7102;-72
2022/12/22 03:52:22;;;;;;;;;;;;;;;14.61;63.11;99115.34;4782356;29;8468;-72
2022/12/22 03:54:48;;;;;;;;;;;;;;;14.62;62.81;99112.75;4782251;29;6777;-72
2022/12/22 03:57:13;;;;;;;;;;;;;;;14.62;62.97;99105.03;4792628;29;6773;-72
2022/12/22 03:59:39;;;;;;;;;;;;;;;14.64;63.24;99112.78;4777774;29;7799;-72
2022/12/22 04:02:05;;;;;;;;;;;;;;;14.65;63.27;99106.78;4796740;29;7117;-70
2022/12/22 04:04:30;;;;;;;;;;;;;;;14.65;63.92;99099.03;4781520;29;6758;-71
2022/12/22 04:06:57;;;;;;;;;;;;;;;14.66;63.77;99101.66;4797188;29;7824;-70
2022/12/22 04:09:23;;;;;;;;;;;;;;;14.67;63.40;99105.06;4772443;29;7258;-71
2022/12/22 04:14:34;;;;;;;;;;;;;;;14.68;63.48;99087.03;4795646;29;7196;-71
2022/12/22 04:17:01;;;;;;;;;;;;;;;14.71;63.34;99096.53;4766227;29;8677;-71
2022/12/22 04:19:27;;;;;;;;;;;;;;;14.74;62.86;99085.44;4783530;29;6973;-71
2022/12/22 04:21:53;;;;;;;;;;;;;;;14.77;62.65;99080.28;4780439;29;6958;-71
2022/12/22 04:24:19;;;;;;;;;;;;;;;14.79;63.16;99089.78;4789473;29;6786;-69
2022/12/22 04:26:45;;;;;;;;;;;;;;;14.80;62.83;99075.16;4798902;29;6781;-71
2022/12/22 04:29:10;;;;;;;;;;;;;;;14.79;62.80;99071.72;4793190;29;6895;-70
2022/12/22 04:31:36;;;;;;;;;;;;;;;14.81;62.47;99079.47;4779816;29;6777;-71
2022/12/22 04:34:01;;;;;;;;;;;;;;;14.82;63.18;99076.03;4784783;29;6900;-71
2022/12/22 04:36:27;;;;;;;;;;;;;;;14.82;62.86;99076.91;4784408;29;6865;-70
2022/12/22 04:38:53;;;;;;;;;;;;;;;14.83;62.64;99065.72;4793474;29;6973;-70
2022/12/22 04:41:18;;;;;;;;;;;;;;;14.85;62.49;99073.50;4791268;29;6984;-71
2022/12/22 04:43:44;;;;;;;;;;;;;;;14.85;62.58;99071.75;4779867;29;6781;-72
2022/12/22 04:46:10;;;;;;;;;;;;;;;14.86;62.81;99070.06;4775391;29;6833;-70
2022/12/22 04:48:35;;;;;;;;;;;;;;;14.86;62.13;99067.47;4796903;29;6773;-70
2022/12/22 04:51:02;;;;;;;;;;;;;;;14.85;62.09;99066.59;4779255;29;8232;-70
2022/12/22 04:53:29;;;;;;;;;;;;;;;14.83;62.33;99070.03;4781561;29;6797;-70
2022/12/22 04:56:05;;;;;;;;;;;;;;;14.80;62.43;99070.00;4796120;29;7027;-71
2022/12/22 04:58:31;;;;;;;;;;;;;;;14.74;62.04;99067.38;4782575;29;6797;-71
2022/12/22 05:01:06;;;;;;;;;;;;;;;14.70;62.63;99076.75;4775667;29;6923;-70
2022/12/22 05:03:31;;;;;;;;;;;;;;;14.66;62.24;99081.00;4776789;29;7285;-69
2022/12/22 05:05:57;;;;;;;;;;;;;;;14.64;61.97;99080.16;4761456;29;8468;-70
2022/12/22 05:08:22;;;;;;;;;;;;;;;14.63;62.63;99083.56;4794171;29;6785;-71
2022/12/22 05:10:48;;;;;;;;;;;;;;;14.61;61.90;99079.25;4767283;29;6992;-70
2022/12/22 05:13:14;;;;;;;;;;;;;;;14.58;62.36;99083.53;4781930;29;6837;-70
2022/12/22 05:15:39;;;;;;;;;;;;;;;14.57;62.16;99079.19;4798648;29;8478;-70
2022/12/22 05:18:05;;;;;;;;;;;;;;;14.57;62.07;99078.34;4783575;29;6781;-70
2022/12/22 05:20:31;;;;;;;;;;;;;;;14.56;62.43;99076.63;4783362;29;7724;-70
2022/12/22 05:22:56;;;;;;;;;;;;;;;14.54;62.37;99081.75;4796196;29;7633;-69
2022/12/22 05:25:22;;;;;;;;;;;;;;;14.52;62.77;99078.28;4763727;29;6982;-70
2022/12/22 05:27:50;;;;;;;;;;;;;;;14.51;62.63;99084.31;4779587;29;8563;-71
2022/12/22 05:30:17;;;;;;;;;;;;;;;14.50;62.57;99079.13;4778526;29;6821;-71
2022/12/22 05:32:43;;;;;;;;;;;;;;;14.49;62.95;99086.00;4780216;29;6858;-70
2022/12/22 05:35:10;;;;;;;;;;;;;;;14.48;62.95;99086.81;4796083;29;6832;-70
2022/12/22 05:37:35;;;;;;;;;;;;;;;14.48;62.76;99088.56;4801024;29;7105;-70
2022/12/22 05:40:01;;;;;;;;;;;;;;;14.49;62.59;99096.31;4797254;29;7236;-70
2022/12/22 05:42:36;;;;;;;;;;;;;;;14.51;63.22;99099.78;4773362;29;8949;-70
2022/12/22 05:45:16;;;;;;;;;;;;;;;14.55;63.47;99098.09;4796646;29;7914;-69
2022/12/22 05:47:46;;;;;;;;;;;;;;;14.57;63.12;99104.13;4782475;29;6986;-70
2022/12/22 05:50:15;;;;;;;;;;;;;;;14.57;62.99;99107.56;4783991;29;6805;-71
2022/12/22 05:52:40;;;;;;;;;;;;;;;14.57;62.20;99107.56;4795039;29;6801;-70
2022/12/22 05:55:07;;;;;;;;;;;;;;;14.57;62.11;99110.13;4773098;29;6781;-70
2022/12/22 05:57:33;;;;;;;;;;;;;;;14.59;63.28;99112.72;4798753;29;6793;-69
2022/12/22 05:59:59;;;;;;;;;;;;;;;14.60;62.97;99109.31;4792399;29;7154;-70
2022/12/22 06:02:25;;;;;;;;;;;;;;;14.62;63.05;99107.59;4781889;29;8420;-70
2022/12/22 06:04:51;;;;;;;;;;;;;;;14.64;62.31;99105.94;4766715;29;8670;-70
2022/12/22 06:07:16;;;;;;;;;;;;;;;14.63;62.88;99111.06;4781533;29;7098;-70
2022/12/22 06:09:42;;;;;;;;;;;;;;;14.58;62.03;99106.72;4786117;29;7843;-70
2022/12/22 06:12:08;;;;;;;;;;;;;;;14.54;62.65;99107.53;4796843;29;6841;-70
2022/12/22 06:14:34;;;;;;;;;;;;;;;14.48;61.98;99114.34;4788754;29;6793;-70
2022/12/22 06:16:59;;;;;;;;;;;;;;;14.42;62.52;99118.56;4784103;29;6797;-70
2022/12/22 06:19:25;;;;;;;;;;;;;;;14.37;62.58;99127.97;4787899;29;6773;-69
2022/12/22 06:21:51;;;;;;;;;;;;;;;14.30;62.57;99121.88;4798911;29;6774;-72
2022/12/22 06:24:16;;;;;;;;;;;;;;;14.25;62.54;99125.25;4804017;29;7883;-70
2022/12/22 06:26:42;;;;;;;;;;;;;;;14.24;62.55;99129.50;4795354;29;6949;-71
2022/12/22 06:29:08;;;;;;;;;;;;;;;14.23;62.96;99143.25;4785554;29;6773;-71
2022/12/22 06:31:33;;;;;;;;;;;;;;;14.25;63.27;99144.13;4776637;29;6871;-70
2022/12/22 06:33:59;;;;;;;;;;;;;;;14.28;62.94;99151.88;4771140;29;6824;-71
2022/12/22 06:36:25;;;;;;;;;;;;;;;14.32;63.68;99155.38;4796561;29;6973;-71
2022/12/22 06:38:50;;;;;;;;;;;;;;;14.35;63.34;99154.56;4787383;29;6777;-71
2022/12/22 06:43:07;;;;;;;;;;;;;;;14.37;63.77;99151.16;4805716;29;6769;-71
2022/12/22 06:44:04;;;;;;;;;;;;;;;14.43;62.92;99165.84;4793419;29;6825;-71
2022/12/22 06:46:30;;;;;;;;;;;;;;;14.47;63.90;99169.31;4804908;29;6777;-70
2022/12/22 06:48:55;;;;;;;;;;;;;;;14.48;63.55;99171.03;4800120;29;6843;-70
2022/12/22 06:51:21;;;;;;;;;;;;;;;14.50;63.00;99177.97;4788874;29;7025;-71
2022/12/22 06:53:46;;;;;;;;;;;;;;;14.51;62.94;99187.41;4803393;29;6853;-70
2022/12/22 06:56:12;;;;;;;;;;;;;;;14.51;63.60;99187.41;4803014;29;7331;-71
2022/12/22 06:58:38;;;;;;;;;;;;;;;14.53;63.02;99193.47;4787394;29;7847;-71
2022/12/22 07:01:03;;;;;;;;;;;;;;;14.54;63.33;99192.59;4794818;29;6853;-69
2022/12/22 07:03:29;;;;;;;;;;;;;;;14.57;62.93;99197.78;4795997;29;6773;-71
2022/12/22 07:05:55;;;;;;;;;;;;;;;14.58;62.84;99207.28;4798154;29;6792;-70
2022/12/22 07:08:20;;;;;;;;;;;;;;;14.63;63.92;99216.78;4781800;29;6849;-70
2022/12/22 07:10:58;;;;;;;;;;;;;;;14.65;63.59;99220.22;4786976;29;6985;-70
2022/12/22 07:13:30;;;;;;;;;;;;;;;14.67;62.99;99224.56;4767021;29;8518;-71
2022/12/22 07:15:56;;;;;;;;;;;;;;;14.69;63.59;99237.50;4800894;29;6867;-70
2022/12/22 07:18:22;;;;;;;;;;;;;;;14.71;62.71;99246.97;4778795;29;6865;-71
2022/12/22 07:20:47;;;;;;;;;;;;;;;14.74;63.21;99263.38;4786479;29;6828;-71
2022/12/22 07:23:13;;;;;;;;;;;;;;;14.74;63.40;99260.78;4800472;29;7153;-70
2022/12/22 07:25:39;;;;;;;;;;;;;;;14.73;62.83;99259.91;4795914;29;6777;-70
2022/12/22 07:28:07;;;;;;;;;;;;;;;14.72;63.33;99256.47;4781693;29;6774;-70
2022/12/22 07:30:35;;;;;;;;;;;;;;;14.72;62.88;99268.47;4803975;29;7277;-71
2022/12/22 07:33:02;;;;;;;;;;;;;;;14.70;64.01;99260.69;4790780;29;11585;-70
2022/12/22 07:35:28;;;;;;;;;;;;;;;14.71;63.71;99271.91;4776205;29;8464;-71
2022/12/22 07:37:53;;;;;;;;;;;;;;;14.72;62.97;99279.66;4800269;29;6804;-71
2022/12/22 07:40:19;;;;;;;;;;;;;;;14.73;63.43;99293.44;4796400;29;8524;-70
2022/12/22 07:42:45;;;;;;;;;;;;;;;14.73;63.47;99298.59;4801883;29;6785;-70
2022/12/22 07:45:18;;;;;;;;;;;;;;;14.72;62.98;99302.00;4778998;29;8395;-70
2022/12/22 07:47:45;;;;;;;;;;;;;;;14.73;62.95;99311.50;4798079;29;7915;-70
2022/12/22 07:50:24;;;;;;;;;;;;;;;14.74;63.76;99317.53;4780167;29;7249;-71
2022/12/22 07:52:56;;;;;;;;;;;;;;;14.74;64.02;99315.81;4779673;29;6801;-71
2022/12/22 07:55:26;;;;;;;;;;;;;;;14.74;63.95;99318.38;4792449;29;6777;-70
2022/12/22 07:57:53;;;;;;;;;;;;;;;14.75;63.63;99330.44;4781930;29;6785;-70
2022/12/22 08:00:19;;;;;;;;;;;;;;;14.76;63.34;99336.47;4792142;29;7294;-71
2022/12/22 08:02:54;;;;;;;;;;;;;;;14.75;63.66;99340.75;4773473;29;7009;-70
2022/12/22 08:05:23;;;;;;;;;;;;;;;14.75;63.71;99351.06;4788787;29;6856;-70
2022/12/22 08:07:50;;;;;;;;;;;;;;;14.76;63.22;99357.94;4796791;29;6785;-70
2022/12/22 08:10:18;;;;;;;;;;;;;;;14.77;63.50;99366.56;4786906;29;8242;-71
2022/12/22 08:12:45;;;;;;;;;;;;;;;14.77;63.35;99374.31;4787615;29;6813;-70
2022/12/22 08:15:11;;;;;;;;;;;;;;;14.75;62.52;99374.28;4777132;29;6841;-70
2022/12/22 08:17:38;;;;;;;;;;;;;;;14.75;63.02;99378.59;4783838;29;6873;-71
2022/12/22 08:20:05;;;;;;;;;;;;;;;14.76;63.43;99377.75;4785122;29;6793;-70
2022/12/22 08:22:31;;;;;;;;;;;;;;;14.76;63.27;99386.31;4779588;29;6793;-70
2022/12/22 08:24:57;;;;;;;;;;;;;;;14.77;63.23;99400.94;4793202;29;6869;-70
2022/12/22 08:27:38;;;;;;;;;;;;;;;14.78;63.50;99405.28;4787451;29;6781;-72
2022/12/22 08:30:08;;;;;;;;;;;;;;;14.78;63.14;99405.28;4784673;29;6869;-71
2022/12/22 08:32:37;;;;;;;;;;;;;;;14.74;63.41;99416.41;4787137;29;6801;-70
2022/12/22 08:35:05;;;;;;;;;;;;;;;14.74;63.42;99416.41;4785207;29;7170;-71
2022/12/22 08:37:39;;;;;;;;;;;;;;;14.73;63.47;99430.13;4797617;29;7517;-70
2022/12/22 08:40:15;;;;;;;;;;;;;;;14.73;63.48;99435.28;4803557;29;6885;-71
2022/12/22 08:42:42;;;;;;;;;;;;;;;14.71;62.74;99436.97;4782454;29;7144;-71
2022/12/22 08:45:10;;;;;;;;;;;;;;;14.70;62.98;99448.13;4760887;29;8544;-71
2022/12/22 08:47:35;;;;;;;;;;;;;;;14.66;63.26;99454.06;4783531;29;7748;-70
2022/12/22 08:50:02;;;;;;;;;;;;;;;14.63;62.83;99454.00;4779358;29;8402;-70
2022/12/22 08:52:27;;;;;;;;;;;;;;;14.62;62.67;99460.00;4800493;29;6817;-70
2022/12/22 08:54:53;;;;;;;;;;;;;;;14.60;63.19;99459.13;4798340;29;7831;-70
2022/12/22 08:57:18;;;;;;;;;;;;;;;14.57;63.14;99471.09;4775719;29;6857;-70
2022/12/22 08:59:46;;;;;;;;;;;;;;;14.57;63.46;99480.56;4802557;29;6947;-71
2022/12/22 09:02:12;;;;;;;;;;;;;;;14.58;63.79;99478.03;4794533;29;6790;-71
2022/12/22 09:04:38;;;;;;;;;;;;;;;14.62;63.77;99483.22;4796167;29;6769;-70
2022/12/22 09:07:04;;;;;;;;;;;;;;;14.65;63.67;99497.03;4782763;29;6793;-70
2022/12/22 09:09:34;;;;;;;;;;;;;;;14.70;63.35;99497.13;4783911;29;6788;-70
2022/12/22 09:12:01;;;;;;;;;;;;;;;14.74;63.85;99504.09;4780259;29;7494;-70
2022/12/22 09:14:28;;;;;;;;;;;;;;;14.77;63.78;99519.59;4781853;29;6789;-70
2022/12/22 09:16:53;;;;;;;;;;;;;;;14.80;63.44;99504.19;4784461;29;7761;-70
2022/12/22 09:19:19;;;;;;;;;;;;;;;14.86;63.62;99506.84;4775641;29;7170;-70
2022/12/22 09:21:45;;;;;;;;;;;;;;;14.92;63.64;99506.13;4788010;29;9789;-71
2022/12/22 09:24:10;;;;;;;;;;;;;;;14.98;63.01;99523.41;4799202;29;8376;-71
2022/12/22 09:26:36;;;;;;;;;;;;;;;15.03;63.22;99518.31;4784125;29;6777;-70
2022/12/22 09:29:03;;;;;;;;;;;;;;;15.09;63.26;99514.13;4783399;29;6840;-70
2022/12/22 09:31:28;;;;;;;;;;;;;;;15.15;63.42;99528.81;4787624;29;6809;-70
2022/12/22 09:33:55;;;;;;;;;;;;;;;15.20;63.54;99528.88;4792035;29;6769;-71
2022/12/22 09:36:25;;;;;;;;;;;;;;;15.23;63.09;99542.72;4801567;29;6801;-70
2022/12/22 09:38:52;;;;;;;;;;;;;;;15.24;63.01;99547.03;4779671;29;6979;-71
2022/12/22 09:41:40;;;;;;;;;;;;;;;15.24;62.71;99559.94;4785797;29;6794;-71
2022/12/22 09:44:25;;;;;;;;;;;;;;;15.23;62.46;99563.38;4789779;29;6880;-70
2022/12/22 09:46:54;;;;;;;;;;;;;;;15.20;62.58;99559.88;4781969;29;6893;-71
2022/12/22 09:49:21;;;;;;;;;;;;;;;15.13;62.51;99554.59;4800260;29;7874;-71
2022/12/22 09:51:53;;;;;;;;;;;;;;;15.10;62.72;99549.38;4781156;29;7724;-70
2022/12/22 09:54:20;;;;;;;;;;;;;;;15.08;62.47;99555.38;4786872;29;6864;-71
2022/12/22 09:56:46;;;;;;;;;;;;;;;15.03;62.57;99568.19;4772398;29;8529;-71
2022/12/22 09:59:15;;;;;;;;;;;;;;;15.01;62.97;99595.69;4798625;29;7307;-71
2022/12/22 10:02:25;;;;;;;;;;;;;;;14.99;62.72;99605.13;4783572;29;6793;-70
2022/12/22 10:05:14;;;;;;;;;;;;;;;14.95;62.89;99613.63;4766970;29;8531;-70
2022/12/22 10:07:41;;;;;;;;;;;;;;;14.93;62.77;99612.75;4794090;29;8553;-70
2022/12/22 10:10:23;;;;;;;;;;;;;;;14.90;62.60;99597.22;4792857;29;7136;-70
2022/12/22 10:12:51;;;;;;;;;;;;;;;14.90;62.12;99607.53;4799628;29;6820;-71
2022/12/22 10:15:17;;;;;;;;;;;;;;;14.88;62.63;99610.09;4799714;29;6801;-70
2022/12/22 10:17:42;;;;;;;;;;;;;;;14.87;62.49;99605.78;4786546;29;6797;-70
2022/12/22 10:20:25;;;;;;;;;;;;;;;14.88;61.96;99604.06;4803739;29;8837;-70
2022/12/22 10:23:11;;;;;;;;;;;;;;;14.83;62.42;99606.56;4774047;29;7347;-71
2022/12/22 10:25:57;;;;;;;;;;;;;;;14.80;62.03;99607.38;4778445;29;6971;-71
2022/12/22 10:28:34;;;;;;;;;;;;;;;14.78;62.55;99608.19;4801302;29;6793;-71
2022/12/22 10:31:22;;;;;;;;;;;;;;;14.75;61.85;99611.56;4786735;29;7013;-71
2022/12/22 10:33:53;;;;;;;;;;;;;;;14.73;62.18;99610.69;4796618;29;6828;-70
2022/12/22 10:36:31;;;;;;;;;;;;;;;14.70;61.72;99618.34;4778249;29;7004;-71
2022/12/22 10:39:01;;;;;;;;;;;;;;;14.70;62.39;99626.06;4794991;29;7350;-72
2022/12/22 10:41:39;;;;;;;;;;;;;;;14.72;61.71;99626.97;4801200;29;8528;-70
2022/12/22 10:44:21;;;;;;;;;;;;;;;14.77;62.47;99630.50;4776069;29;7846;-71
2022/12/22 10:46:56;;;;;;;;;;;;;;;14.86;62.24;99627.25;4781777;29;6805;-72
2022/12/22 10:49:35;;;;;;;;;;;;;;;14.94;62.47;99628.25;4762025;29;8056;-70
2022/12/22 10:52:23;;;;;;;;;;;;;;;15.04;61.96;99631.84;4794422;29;7143;-71
2022/12/22 10:54:49;;;;;;;;;;;;;;;15.09;62.10;99640.56;4804978;29;6805;-71
2022/12/22 10:57:15;;;;;;;;;;;;;;;15.11;61.72;99636.28;4769149;29;7175;-71
2022/12/22 10:59:48;;;;;;;;;;;;;;;15.17;61.32;99648.44;4789035;29;8497;-70
2022/12/22 11:02:36;;;;;;;;;;;;;;;15.30;61.39;99649.50;4784312;29;7287;-71
2022/12/22 11:05:09;;;;;;;;;;;;;;;15.50;61.68;99656.72;4795769;29;7719;-71
2022/12/22 11:07:39;;;;;;;;;;;;;;;15.74;61.01;99663.97;4782190;29;6781;-70
2022/12/22 11:10:48;;;;;;;;;;;;;;;15.89;60.93;99660.75;4783695;29;7066;-72
2022/12/22 11:13:41;;;;;;;;;;;;;;;15.90;60.21;99659.94;4779671;29;6821;-71
2022/12/22 11:16:37;;;;;;;;;;;;;;;15.91;59.94;99664.25;4789720;29;6809;-72
2022/12/22 11:19:40;;;;;;;;;;;;;;;15.93;59.32;99662.56;4789758;29;6818;-71
2022/12/22 11:22:36;;;;;;;;;;;;;;;15.99;58.73;99669.53;4798866;29;8126;-70
2022/12/22 11:25:55;;;;;;;;;;;;;;;16.18;58.41;99672.38;4798124;29;6809;-70
2022/12/22 11:28:44;;;;;;;;;;;;;;;16.43;58.50;99678.72;4792045;29;6901;-72
2022/12/22 11:31:55;;;;;;;;;;;;;;;16.44;58.70;99670.13;4789092;29;6825;-70
2022/12/22 11:34:40;;;;;;;;;;;;;;;16.64;58.98;99667.75;4796602;29;6813;-71
2022/12/22 11:37:49;;;;;;;;;;;;;;;17.00;57.40;99670.78;4784347;29;6966;-70
2022/12/22 11:40:41;;;;;;;;;;;;;;;17.47;56.25;99676.34;4782970;29;7871;-72
2022/12/22 11:43:28;;;;;;;;;;;;;;;17.92;54.44;99668.91;4793282;29;6805;-70
2022/12/22 11:46:29;;;;;;;;;;;;;;;18.27;53.62;99670.84;4794230;29;6809;-72
2022/12/22 11:49:26;;;;;;;;;;;;;;;18.58;53.25;99676.16;4781931;29;7164;-71
2022/12/22 11:52:31;;;;;;;;;;;;;;;18.73;52.58;99671.88;4796902;29;6813;-70
2022/12/22 11:55:20;;;;;;;;;;;;;;;18.83;52.52;99664.97;4802061;29;7334;-70
2022/12/22 11:58:25;;;;;;;;;;;;;;;18.95;51.86;99669.34;4767020;29;8939;-71
2022/12/22 12:01:26;;;;;;;;;;;;;;;18.95;51.75;99675.41;4795507;29;6889;-70
2022/12/22 12:04:40;;;;;;;;;;;;;;;18.60;52.37;99666.66;4799862;29;8737;-71
2022/12/22 12:07:23;;;;;;;;;;;;;;;18.00;53.00;99676.72;4791500;29;6817;-70
2022/12/22 12:10:24;;;;;;;;;;;;;;;17.57;53.59;99667.78;4784219;29;7371;-71
2022/12/22 12:13:11;;;;;;;;;;;;;;;17.19;54.40;99676.97;4796315;29;7433;-70
2022/12/22 12:16:06;;;;;;;;;;;;;;;16.92;54.63;99673.22;4779080;29;8053;-71
2022/12/22 12:19:22;;;;;;;;;;;;;;;16.64;55.15;99677.25;4783863;29;6825;-71
2022/12/22 12:21:58;;;;;;;;;;;;;;;16.38;55.77;99670.03;4794630;29;6973;-70
2022/12/22 12:24:59;;;;;;;;;;;;;;;16.25;55.86;99669.00;4781647;29;7267;-70
2022/12/22 12:28:06;;;;;;;;;;;;;;;16.10;56.32;99667.97;4788363;29;6820;-72
2022/12/22 12:30:55;;;;;;;;;;;;;;;16.01;56.16;99659.19;4783878;29;7931;-71
2022/12/22 12:33:45;;;;;;;;;;;;;;;15.96;56.42;99665.19;4782045;29;7117;-70
2022/12/22 12:36:28;;;;;;;;;;;;;;;15.93;57.05;99660.00;4757289;29;7213;-71
2022/12/22 12:39:28;;;;;;;;;;;;;;;15.93;56.85;99660.00;4790082;29;6901;-70
2022/12/22 12:42:33;;;;;;;;;;;;;;;15.92;57.03;99655.63;4798308;29;7213;-70
2022/12/22 12:45:01;;;;;;;;;;;;;;;15.91;56.93;99653.06;4794559;29;8442;-72
2022/12/22 12:47:31;;;;;;;;;;;;;;;15.89;57.07;99650.41;4789333;29;7028;-70
2022/12/22 12:50:21;;;;;;;;;;;;;;;15.85;56.56;99640.00;4771984;29;6813;-70
2022/12/22 12:52:47;;;;;;;;;;;;;;;15.76;56.41;99645.91;4787000;29;7427;-70
2022/12/22 12:55:27;;;;;;;;;;;;;;;15.68;56.42;99641.50;4790083;29;7278;-70
2022/12/22 12:57:53;;;;;;;;;;;;;;;15.62;57.08;99646.56;4791775;29;6864;-71
2022/12/22 13:00:31;;;;;;;;;;;;;;;15.57;57.17;99640.47;4791376;29;7173;-70
2022/12/22 13:03:07;;;;;;;;;;;;;;;15.52;56.71;99640.41;4791228;29;6793;-70
2022/12/22 13:05:51;;;;;;;;;;;;;;;15.48;56.55;99632.59;4788507;29;7863;-70
2022/12/22 13:08:25;;;;;;;;;;;;;;;15.43;56.30;99644.53;4787480;29;6825;-69
2022/12/22 13:10:54;;;;;;;;;;;;;;;15.35;56.47;99645.28;4774434;29;6968;-70
2022/12/22 13:13:23;;;;;;;;;;;;;;;15.28;56.26;99651.22;4792614;29;7307;-72
2022/12/22 13:16:01;;;;;;;;;;;;;;;15.19;55.87;99645.88;4797583;29;6809;-71
2022/12/22 13:18:29;;;;;;;;;;;;;;;15.14;56.07;99656.97;4793074;29;8493;-72
2022/12/22 13:21:05;;;;;;;;;;;;;;;15.13;56.13;99656.97;4793272;29;6861;-70
2022/12/22 13:23:47;;;;;;;;;;;;;;;15.08;56.44;99661.16;4781248;29;7271;-71
2022/12/22 13:26:19;;;;;;;;;;;;;;;15.09;56.19;99668.06;4787224;29;7817;-70
2022/12/22 13:28:55;;;;;;;;;;;;;;;15.10;55.79;99673.28;4779063;29;8727;-70
2022/12/22 13:31:40;;;;;;;;;;;;;;;15.11;56.42;99675.00;4770290;29;6967;-71
2022/12/22 13:34:39;;;;;;;;;;;;;;;15.12;56.07;99670.72;4780242;29;6825;-70
2022/12/22 13:37:23;;;;;;;;;;;;;;;15.11;56.20;99675.00;4770050;29;6813;-71
2022/12/22 13:40:16;;;;;;;;;;;;;;;15.13;56.60;99663.00;4776516;29;8077;-71
2022/12/22 13:42:51;;;;;;;;;;;;;;;15.12;56.30;99661.25;4774463;29;7004;-71
2022/12/22 13:45:37;;;;;;;;;;;;;;;15.11;56.10;99659.53;4771941;29;6797;-70
2022/12/22 13:48:12;;;;;;;;;;;;;;;15.12;56.22;99661.25;4792737;29;6989;-71
2022/12/22 13:50:48;;;;;;;;;;;;;;;15.17;55.75;99668.22;4770529;29;8829;-69
2022/12/22 13:53:32;;;;;;;;;;;;;;;15.23;56.57;99663.16;4772359;29;6817;-70
2022/12/22 13:55:58;;;;;;;;;;;;;;;15.28;56.29;99664.13;4789432;29;6867;-70
2022/12/22 13:58:34;;;;;;;;;;;;;;;15.31;56.42;99661.56;4791745;29;7204;-71
2022/12/22 14:01:09;;;;;;;;;;;;;;;15.34;55.79;99651.28;4785211;29;7278;-72
2022/12/22 14:03:44;;;;;;;;;;;;;;;15.37;55.89;99653.06;4794699;29;7717;-70
2022/12/22 14:06:42;;;;;;;;;;;;;;;15.38;55.88;99655.69;4782499;29;6885;-71
2022/12/22 14:09:15;;;;;;;;;;;;;;;15.36;55.75;99641.88;4746925;29;7322;-70
2022/12/22 14:11:53;;;;;;;;;;;;;;;15.36;55.92;99647.03;4790891;29;8638;-70
2022/12/22 14:14:28;;;;;;;;;;;;;;;15.35;55.60;99642.69;4784395;29;6845;-70
2022/12/22 14:16:59;;;;;;;;;;;;;;;15.36;55.62;99638.41;4778295;29;6817;-71
2022/12/22 14:19:32;;;;;;;;;;;;;;;15.33;55.91;99625.47;4779550;29;8790;-71
2022/12/22 14:22:16;;;;;;;;;;;;;;;15.26;56.02;99630.50;4776158;29;6809;-72
2022/12/22 14:24:55;;;;;;;;;;;;;;;15.17;55.73;99621.78;4771685;29;8103;-71
2022/12/22 14:27:37;;;;;;;;;;;;;;;15.08;55.88;99620.75;4769727;29;7585;-71
2022/12/22 14:30:15;;;;;;;;;;;;;;;15.04;56.16;99616.38;4772377;29;7187;-71
2022/12/22 14:32:51;;;;;;;;;;;;;;;14.99;56.45;99610.28;4755813;29;12891;-72
2022/12/22 14:35:25;;;;;;;;;;;;;;;14.97;56.35;99606.81;4758651;29;7302;-70
2022/12/22 14:38:15;;;;;;;;;;;;;;;14.95;56.62;99605.91;4788257;29;7256;-70
2022/12/22 14:40:43;;;;;;;;;;;;;;;14.93;55.83;99613.63;4772348;29;7502;-70
2022/12/22 14:43:18;;;;;;;;;;;;;;;14.90;56.44;99618.72;4788262;29;8530;-71
2022/12/22 14:45:49;;;;;;;;;;;;;;;14.81;56.19;99597.91;4789094;29;7418;-71
2022/12/22 14:48:19;;;;;;;;;;;;;;;14.66;56.18;99608.78;4757595;29;7241;-70
2022/12/22 14:50:50;;;;;;;;;;;;;;;14.48;57.02;99609.31;4777015;29;6801;-71
2022/12/22 14:53:29;;;;;;;;;;;;;;;14.31;57.27;99607.28;4786891;29;8511;-71
2022/12/22 14:55:55;;;;;;;;;;;;;;;14.18;57.46;99606.16;4765496;29;7240;-72
2022/12/22 14:58:37;;;;;;;;;;;;;;;14.06;57.98;99608.47;4770687;29;6849;-71
2022/12/22 15:01:27;;;;;;;;;;;;;;;13.96;58.51;99597.13;4760021;29;6852;-71
2022/12/22 15:04:17;;;;;;;;;;;;;;;13.85;58.73;99586.56;4788461;29;7029;-72
2022/12/22 15:06:47;;;;;;;;;;;;;;;13.80;59.04;99588.16;4770856;29;6879;-72
2022/12/22 15:09:13;;;;;;;;;;;;;;;13.75;58.32;99591.53;4765242;29;7879;-72
2022/12/22 15:12:04;;;;;;;;;;;;;;;13.72;58.86;99576.03;4779660;29;8610;-70
2022/12/22 15:14:35;;;;;;;;;;;;;;;13.69;59.14;99573.34;4768013;29;6991;-70
2022/12/22 15:17:01;;;;;;;;;;;;;;;13.69;59.71;99580.22;4752433;29;7002;-71
2022/12/22 15:19:34;;;;;;;;;;;;;;;13.68;59.56;99573.34;4772848;29;7151;-71
2022/12/22 15:21:59;;;;;;;;;;;;;;;13.66;58.98;99570.72;4771015;29;6833;-70
2022/12/22 15:24:25;;;;;;;;;;;;;;;13.64;59.77;99572.41;4789599;29;6820;-72
2022/12/22 15:26:51;;;;;;;;;;;;;;;13.63;59.29;99552.63;4787493;29;6825;-72
2022/12/22 15:29:17;;;;;;;;;;;;;;;13.61;59.53;99557.75;4786987;29;6817;-72
2022/12/22 15:31:43;;;;;;;;;;;;;;;13.59;60.17;99554.28;4764507;29;6871;-71
2022/12/22 15:34:18;;;;;;;;;;;;;;;13.59;60.47;99562.00;4786601;29;6781;-72
2022/12/22 15:36:43;;;;;;;;;;;;;;;13.62;60.14;99558.63;4786718;29;6978;-71
2022/12/22 15:39:15;;;;;;;;;;;;;;;13.65;60.28;99563.84;4779694;29;6778;-70
2022/12/22 15:41:42;;;;;;;;;;;;;;;13.65;60.40;99556.13;4773588;29;6927;-70
2022/12/22 15:44:07;;;;;;;;;;;;;;;13.65;61.00;99553.53;4778921;29;6852;-71
2022/12/22 15:46:34;;;;;;;;;;;;;;;13.66;60.16;99544.09;4767139;29;7256;-71
2022/12/22 15:49:00;;;;;;;;;;;;;;;13.65;60.87;99538.09;4795778;29;6982;-70
2022/12/22 15:51:30;;;;;;;;;;;;;;;13.64;61.08;99544.06;4775294;29;6946;-70
2022/12/22 15:53:58;;;;;;;;;;;;;;;13.61;61.34;99550.03;4779693;29;6801;-70
2022/12/22 15:56:28;;;;;;;;;;;;;;;13.60;61.25;99544.81;4779271;29;7720;-71
2022/12/22 15:58:55;;;;;;;;;;;;;;;13.61;61.61;99544.00;4775418;29;7390;-70
2022/12/22 16:01:20;;;;;;;;;;;;;;;13.60;61.11;99539.69;4764449;29;7013;-71
2022/12/22 16:03:46;;;;;;;;;;;;;;;13.60;61.04;99535.41;4775303;29;6961;-71
2022/12/22 16:06:15;;;;;;;;;;;;;;;13.63;61.16;99532.03;4778413;29;8132;-72
2022/12/22 16:08:50;;;;;;;;;;;;;;;13.64;61.15;99523.47;4772932;29;6805;-71
2022/12/22 16:11:17;;;;;;;;;;;;;;;13.65;62.21;99516.59;4779871;29;7849;-71
2022/12/22 16:13:43;;;;;;;;;;;;;;;13.67;61.75;99520.97;4795063;29;6781;-72
2022/12/22 16:16:08;;;;;;;;;;;;;;;13.69;62.11;99521.00;4777537;29;6785;-72
2022/12/22 16:18:34;;;;;;;;;;;;;;;13.69;61.76;99508.97;4781103;29;8670;-72
2022/12/22 16:21:12;;;;;;;;;;;;;;;13.70;61.61;99507.28;4794781;29;6773;-73
2022/12/22 16:23:42;;;;;;;;;;;;;;;13.74;62.68;99515.13;4793539;29;7109;-72
2022/12/22 16:26:17;;;;;;;;;;;;;;;13.74;61.74;99502.22;4776654;29;7261;-73
2022/12/22 16:28:43;;;;;;;;;;;;;;;13.75;62.74;99503.97;4791714;29;7132;-72
2022/12/22 16:31:20;;;;;;;;;;;;;;;13.80;62.21;99500.59;4777736;29;7095;-72
2022/12/22 16:33:46;;;;;;;;;;;;;;;13.80;62.04;99500.59;4776080;29;6995;-72
2022/12/22 16:36:11;;;;;;;;;;;;;;;13.81;62.89;99486.88;4788725;29;6772;-71
2022/12/22 16:38:38;;;;;;;;;;;;;;;13.86;62.55;99490.44;4765773;29;6884;-70
2022/12/22 16:41:20;;;;;;;;;;;;;;;13.85;63.11;99479.25;4778182;29;7283;-71
2022/12/22 16:43:48;;;;;;;;;;;;;;;13.85;62.85;99481.81;4770004;29;6825;-73
2022/12/22 16:46:18;;;;;;;;;;;;;;;13.88;62.94;99468.16;4774297;29;7212;-74
2022/12/22 16:48:52;;;;;;;;;;;;;;;13.90;62.81;99469.03;4763882;29;7247;-72
2022/12/22 16:51:24;;;;;;;;;;;;;;;13.92;62.10;99467.38;4773749;29;7898;-73
2022/12/22 16:53:50;;;;;;;;;;;;;;;13.94;63.00;99470.84;4767343;29;7310;-72
2022/12/22 16:56:25;;;;;;;;;;;;;;;13.95;62.95;99454.56;4750476;29;7269;-74
2022/12/22 16:58:51;;;;;;;;;;;;;;;13.97;63.14;99458.03;4769055;29;6995;-73
2022/12/22 17:01:33;;;;;;;;;;;;;;;13.96;62.83;99451.13;4770583;29;7199;-73
2022/12/22 17:04:09;;;;;;;;;;;;;;;13.98;62.16;99454.59;4774226;29;6821;-73